createdAt,value
2019-04-19T00:00:47.097Z,99.90
2019-04-19T00:03:20.316Z,99.90
2019-04-19T00:05:52.615Z,99.90
2019-04-19T00:08:36.897Z,99.90
2019-04-19T00:11:06.547Z,99.90
2019-04-19T00:13:23.807Z,99.90
2019-04-19T00:15:52.467Z,99.90
2019-04-19T00:18:21.745Z,99.90
2019-04-19T00:21:08.885Z,99.90
2019-04-19T00:23:29.676Z,99.90
2019-04-19T00:25:51.607Z,99.90
2019-04-19T00:28:31.308Z,99.90
2019-04-19T00:31:00.038Z,99.90
2019-04-19T00:33:28.484Z,99.90
2019-04-19T00:35:51.678Z,99.90
2019-04-19T00:38:40.620Z,99.90
2019-04-19T00:41:14.227Z,99.90
2019-04-19T00:43:44.724Z,99.90
2019-04-19T00:46:20.860Z,99.90
2019-04-19T00:48:47.485Z,99.90
2019-04-19T00:51:15.156Z,99.90
2019-04-19T00:53:40.977Z,99.90
2019-04-19T00:56:09.365Z,99.90
2019-04-19T00:58:34.725Z,99.90
2019-04-19T01:01:08.158Z,99.90
2019-04-19T01:03:39.236Z,99.90
2019-04-19T01:06:08.400Z,99.90
2019-04-19T01:08:35.675Z,99.90
2019-04-19T01:11:20.203Z,99.90
2019-04-19T01:13:50.825Z,99.90
2019-04-19T01:16:16.044Z,99.90
2019-04-19T01:18:45.502Z,99.90
2019-04-19T01:21:05.075Z,99.90
2019-04-19T01:23:40.803Z,99.90
2019-04-19T01:26:08.141Z,99.90
2019-04-19T01:28:35.222Z,99.90
2019-04-19T01:31:10.036Z,99.90
2019-04-19T01:33:39.002Z,99.90
2019-04-19T01:36:04.726Z,99.90
2019-04-19T01:38:40.863Z,99.90
2019-04-19T01:41:20.762Z,99.90
2019-04-19T01:43:50.887Z,99.90
2019-04-19T01:46:25.555Z,99.90
2019-04-19T01:48:56.088Z,99.90
2019-04-19T01:51:45.282Z,99.90
2019-04-19T01:54:12.536Z,99.90
2019-04-19T01:56:24.836Z,99.90
2019-04-19T01:58:58.549Z,99.90
2019-04-19T02:01:27.324Z,99.90
2019-04-19T02:03:54.409Z,99.90
2019-04-19T02:06:32.131Z,99.90
2019-04-19T02:08:57.772Z,99.90
2019-04-19T02:11:54.492Z,99.90
2019-04-19T02:14:21.158Z,99.90
2019-04-19T02:16:52.631Z,99.90
2019-04-19T02:19:21.816Z,99.90
2019-04-19T02:21:50.302Z,99.90
2019-04-19T02:24:21.650Z,99.90
2019-04-19T02:26:56.449Z,99.90
2019-04-19T02:29:21.922Z,99.90
2019-04-19T02:32:15.452Z,99.90
2019-04-19T02:37:15.756Z,99.90
2019-04-19T02:39:45.158Z,99.90
2019-04-19T02:42:23.939Z,99.90
2019-04-19T02:44:51.795Z,99.90
2019-04-19T02:47:30.652Z,99.90
2019-04-19T02:52:25.839Z,99.90
2019-04-19T02:54:53.435Z,99.90
2019-04-19T03:00:11.117Z,99.90
2019-04-19T03:02:44.063Z,99.90
2019-04-19T03:05:10.568Z,99.90
2019-04-19T03:07:11.313Z,99.90
2019-04-19T03:09:43.420Z,99.90
2019-04-19T03:12:32.087Z,99.90
2019-04-19T03:14:50.706Z,99.90
2019-04-19T03:17:33.204Z,99.90
2019-04-19T03:19:56.598Z,99.90
2019-04-19T03:22:46.967Z,99.90
2019-04-19T03:25:03.546Z,99.90
2019-04-19T03:27:17.884Z,99.90
2019-04-19T03:29:46.580Z,99.90
2019-04-19T03:37:32.695Z,99.90
2019-04-19T03:40:08.591Z,99.90
2019-04-19T03:42:40.530Z,99.90
2019-04-19T03:45:07.030Z,99.90
2019-04-19T03:47:45.613Z,99.90
2019-04-19T03:50:04.483Z,99.90
2019-04-19T03:52:37.418Z,99.90
2019-04-19T03:55:08.964Z,99.90
2019-04-19T03:57:31.252Z,99.90
2019-04-19T03:59:52.320Z,99.90
2019-04-19T04:02:24.490Z,99.90
2019-04-19T04:04:58.432Z,99.90
2019-04-19T04:07:25.777Z,99.90
2019-04-19T04:09:57.463Z,99.90
2019-04-19T04:12:38.056Z,99.90
2019-04-19T04:15:10.510Z,99.90
2019-04-19T04:17:28.952Z,99.90
2019-04-19T04:19:58.624Z,99.90
2019-04-19T04:22:33.066Z,99.90
2019-04-19T04:25:06.081Z,99.90
2019-04-19T04:27:39.931Z,99.90
2019-04-19T04:30:06.052Z,99.90
2019-04-19T04:32:43.052Z,99.90
2019-04-19T04:35:13.886Z,99.90
2019-04-19T04:37:44.731Z,99.90
2019-04-19T04:39:59.803Z,99.90
2019-04-19T04:42:35.664Z,99.90
2019-04-19T04:45:36.358Z,99.90
2019-04-19T04:48:10.224Z,99.90
2019-04-19T04:50:49.412Z,99.90
2019-04-19T04:52:56.049Z,99.90
2019-04-19T04:55:28.860Z,99.90
2019-04-19T04:58:01.015Z,99.90
2019-04-19T05:00:35.054Z,99.90
2019-04-19T05:03:09.366Z,99.90
2019-04-19T05:05:46.048Z,99.90
2019-04-19T05:08:19.943Z,99.90
2019-04-19T05:10:43.519Z,99.90
2019-04-19T05:13:19.584Z,99.90
2019-04-19T05:15:51.888Z,99.90
2019-04-19T05:18:21.260Z,99.90
2019-04-19T05:20:46.424Z,99.90
2019-04-19T05:23:14.258Z,99.90
2019-04-19T05:25:50.983Z,99.90
2019-04-19T05:28:16.668Z,99.90
2019-04-19T05:30:42.274Z,99.90
2019-04-19T05:33:10.502Z,99.90
2019-04-19T05:35:52.208Z,99.90
2019-04-19T05:38:30.438Z,99.90
2019-04-19T05:40:57.106Z,99.90
2019-04-19T05:43:51.646Z,99.90
2019-04-19T05:48:30.475Z,99.90
2019-04-19T05:51:13.996Z,99.90
2019-04-19T05:53:27.919Z,99.90
2019-04-19T05:55:48.318Z,99.90
2019-04-19T05:58:25.047Z,99.90
2019-04-19T06:00:58.379Z,99.90
2019-04-19T06:03:27.614Z,99.90
2019-04-19T06:06:14.413Z,99.90
2019-04-19T06:08:22.949Z,99.90
2019-04-19T06:10:53.438Z,99.90
2019-04-19T06:13:19.147Z,99.90
2019-04-19T06:16:06.955Z,99.90
2019-04-19T06:18:38.047Z,99.90
2019-04-19T06:21:17.144Z,99.90
2019-04-19T06:23:43.927Z,99.90
2019-04-19T06:26:46.493Z,99.90
2019-04-19T06:28:55.738Z,99.90
2019-04-19T06:31:19.527Z,99.90
2019-04-19T06:33:42.268Z,99.90
2019-04-19T06:35:59.523Z,99.90
2019-04-19T06:38:24.742Z,99.90
2019-04-19T06:45:28.116Z,99.90
2019-04-19T06:47:47.370Z,99.90
2019-04-19T06:50:08.862Z,99.90
2019-04-19T06:52:38.444Z,99.90
2019-04-19T06:55:14.230Z,99.90
2019-04-19T06:57:51.474Z,99.90
2019-04-19T07:00:20.431Z,99.90
2019-04-19T07:02:39.571Z,99.90
2019-04-19T07:05:22.767Z,99.90
2019-04-19T07:08:07.184Z,99.90
2019-04-19T07:10:38.313Z,99.90
2019-04-19T07:12:59.637Z,99.90
2019-04-19T07:15:39.903Z,99.90
2019-04-19T07:17:53.497Z,99.90
2019-04-19T07:24:18.364Z,99.90
2019-04-19T07:26:44.977Z,99.90
2019-04-19T07:28:53.600Z,99.90
2019-04-19T07:31:22.200Z,99.90
2019-04-19T07:34:06.353Z,99.90
2019-04-19T07:36:40.224Z,99.90
2019-04-19T07:39:08.466Z,99.90
2019-04-19T07:41:39.597Z,99.90
2019-04-19T07:44:21.190Z,99.90
2019-04-19T07:47:11.417Z,99.90
2019-04-19T07:49:29.334Z,99.90
2019-04-19T07:52:06.987Z,99.90
2019-04-19T07:54:30.805Z,99.90
2019-04-19T07:57:22.623Z,99.90
2019-04-19T07:59:54.724Z,99.90
2019-04-19T08:02:36.024Z,99.90
2019-04-19T08:05:01.314Z,99.90
2019-04-19T08:07:29.215Z,99.90
2019-04-19T08:09:59.890Z,99.90
2019-04-19T08:12:23.917Z,99.90
2019-04-19T08:15:02.952Z,99.90
2019-04-19T08:29:48.962Z,99.90
2019-04-19T08:32:11.126Z,99.90
2019-04-19T08:34:40.243Z,99.90
2019-04-19T08:37:19.143Z,99.90
2019-04-19T08:39:56.878Z,99.90
2019-04-19T08:42:30.928Z,99.90
2019-04-19T08:44:49.211Z,99.90
2019-04-19T08:47:23.009Z,99.90
2019-04-19T08:49:46.821Z,99.90
2019-04-19T08:52:23.000Z,99.90
2019-04-19T08:55:04.628Z,99.90
2019-04-19T08:57:19.761Z,99.90
2019-04-19T09:00:12.181Z,99.90
2019-04-19T09:02:36.709Z,99.90
2019-04-19T09:05:04.686Z,99.90
2019-04-19T09:10:26.074Z,99.90
2019-04-19T09:12:34.572Z,99.90
2019-04-19T09:15:08.834Z,99.90
2019-04-19T09:17:50.181Z,99.90
2019-04-19T09:22:35.862Z,99.90
2019-04-19T09:24:58.650Z,99.90
2019-04-19T09:27:46.118Z,99.90
2019-04-19T09:30:11.559Z,99.90
2019-04-19T09:32:27.287Z,99.90
2019-04-19T09:34:59.759Z,99.90
2019-04-19T09:37:39.964Z,99.90
2019-04-19T09:40:03.266Z,99.90
2019-04-19T09:42:37.916Z,99.90
2019-04-19T09:44:56.861Z,99.90
2019-04-19T09:47:23.054Z,99.90
2019-04-19T09:50:03.844Z,99.90
2019-04-19T09:52:44.421Z,99.90
2019-04-19T09:55:15.909Z,99.90
2019-04-19T09:57:38.568Z,99.90
2019-04-19T10:00:02.230Z,99.90
2019-04-19T10:02:28.883Z,99.90
2019-04-19T10:04:52.872Z,99.90
2019-04-19T10:07:21.330Z,99.90
2019-04-19T10:09:56.824Z,99.90
2019-04-19T10:12:19.902Z,99.90
2019-04-19T10:14:48.345Z,99.90
2019-04-19T10:17:24.802Z,99.90
2019-04-19T10:19:53.336Z,99.90
2019-04-19T10:22:22.910Z,99.90
2019-04-19T10:24:54.073Z,99.90
2019-04-19T10:27:29.379Z,99.90
2019-04-19T10:29:58.205Z,99.90
2019-04-19T10:32:38.555Z,99.90
2019-04-19T10:35:07.492Z,99.90
2019-04-19T10:37:35.916Z,99.90
2019-04-19T10:40:09.871Z,99.90
2019-04-19T10:42:38.996Z,99.90
2019-04-19T10:45:10.094Z,99.90
2019-04-19T10:47:39.865Z,99.90
2019-04-19T10:50:20.489Z,99.90
2019-04-19T10:52:39.449Z,99.90
2019-04-19T10:55:08.676Z,99.90
2019-04-19T10:57:37.327Z,99.90
2019-04-19T11:00:07.237Z,99.90
2019-04-19T11:02:36.680Z,99.90
2019-04-19T11:05:22.973Z,99.90
2019-04-19T11:07:51.659Z,99.90
2019-04-19T11:10:20.246Z,99.90
2019-04-19T11:12:50.212Z,99.90
2019-04-19T11:15:18.774Z,99.90
2019-04-19T11:18:01.573Z,99.90
2019-04-19T11:20:38.404Z,99.10
2019-04-19T11:23:00.326Z,99.30
2019-04-19T11:25:28.763Z,98.70
2019-04-19T11:27:57.943Z,98.60
2019-04-19T11:30:30.921Z,96.60
2019-04-19T11:32:59.348Z,97.50
2019-04-19T11:35:29.671Z,98.80
2019-04-19T11:37:58.109Z,96.50
2019-04-19T11:40:27.144Z,97.60
2019-04-19T11:43:49.573Z,96.60
2019-04-19T11:46:18.097Z,96.10
2019-04-19T11:48:47.772Z,92.70
2019-04-19T11:51:16.345Z,92.60
2019-04-19T11:53:46.657Z,93.10
2019-04-19T11:56:38.344Z,91.10
2019-04-19T11:59:04.661Z,91.10
2019-04-19T12:01:36.235Z,90.90
2019-04-19T12:05:21.084Z,91.70
2019-04-19T12:07:44.419Z,90.80
2019-04-19T12:10:14.464Z,88.30
2019-04-19T12:12:43.420Z,92.20
2019-04-19T12:15:13.926Z,91.40
2019-04-19T12:17:42.397Z,90.90
2019-04-19T12:20:37.547Z,90.10
2019-04-19T12:23:06.015Z,86.40
2019-04-19T12:25:35.604Z,90.30
2019-04-19T12:28:04.207Z,88.20
2019-04-19T12:30:33.602Z,90.00
2019-04-19T12:33:03.454Z,90.40
2019-04-19T12:35:32.075Z,88.80
2019-04-19T12:38:50.270Z,88.60
2019-04-19T12:41:19.772Z,83.80
2019-04-19T12:43:49.801Z,85.60
2019-04-19T12:46:19.096Z,85.60
2019-04-19T12:48:48.267Z,87.10
2019-04-19T12:51:16.798Z,86.80
2019-04-19T12:53:46.853Z,87.30
2019-04-19T12:56:15.920Z,89.00
2019-04-19T12:58:44.423Z,84.50
2019-04-19T13:01:14.982Z,84.90
2019-04-19T13:03:54.727Z,87.00
2019-04-19T13:06:37.903Z,86.90
2019-04-19T13:09:10.970Z,84.60
2019-04-19T13:11:40.772Z,84.90
2019-04-19T13:14:09.995Z,86.20
2019-04-19T13:16:38.540Z,86.30
2019-04-19T13:19:07.997Z,83.60
2019-04-19T13:21:36.742Z,84.00
2019-04-19T13:24:06.709Z,85.60
2019-04-19T13:26:35.599Z,86.10
2019-04-19T13:29:05.083Z,83.10
2019-04-19T13:31:34.672Z,82.10
2019-04-19T13:34:03.291Z,82.80
2019-04-19T13:36:47.536Z,84.80
2019-04-19T13:39:21.360Z,82.80
2019-04-19T13:41:52.612Z,85.50
2019-04-19T13:44:21.254Z,83.20
2019-04-19T13:46:50.698Z,82.70
2019-04-19T13:49:19.410Z,80.90
2019-04-19T13:51:48.230Z,84.00
2019-04-19T13:54:16.766Z,83.10
2019-04-19T13:56:47.278Z,81.50
2019-04-19T13:59:16.019Z,81.70
2019-04-19T14:01:44.530Z,83.10
2019-04-19T14:04:13.479Z,81.00
2019-04-19T14:06:42.392Z,82.80
2019-04-19T14:09:13.436Z,80.50
2019-04-19T14:11:42.881Z,78.20
2019-04-19T14:14:12.083Z,79.90
2019-04-19T14:16:41.841Z,81.80
2019-04-19T14:19:11.779Z,80.20
2019-04-19T14:21:40.556Z,80.60
2019-04-19T14:24:09.304Z,80.70
2019-04-19T14:26:45.061Z,77.10
2019-04-19T14:29:09.510Z,77.70
2019-04-19T14:31:38.231Z,80.80
2019-04-19T14:34:06.906Z,80.30
2019-04-19T14:36:36.165Z,75.50
2019-04-19T14:39:08.704Z,77.10
2019-04-19T14:41:37.989Z,75.80
2019-04-19T14:44:07.218Z,78.90
2019-04-19T14:46:36.707Z,77.30
2019-04-19T14:49:06.909Z,76.10
2019-04-19T14:51:39.003Z,75.80
2019-04-19T14:54:06.859Z,75.80
2019-04-19T14:56:37.008Z,76.50
2019-04-19T14:59:05.997Z,74.40
2019-04-19T15:01:37.036Z,76.60
2019-04-19T15:04:10.752Z,77.20
2019-04-19T15:06:39.739Z,77.40
2019-04-19T15:09:08.291Z,73.80
2019-04-19T15:11:36.800Z,74.70
2019-04-19T15:14:06.093Z,72.60
2019-04-19T15:16:37.808Z,72.00
2019-04-19T15:19:05.028Z,72.80
2019-04-19T15:21:34.329Z,70.50
2019-04-19T15:24:02.871Z,70.90
2019-04-19T15:26:31.301Z,70.00
2019-04-19T15:29:00.843Z,71.30
2019-04-19T15:31:30.243Z,70.70
2019-04-19T15:33:58.819Z,68.70
2019-04-19T15:36:27.991Z,69.90
2019-04-19T15:38:57.716Z,68.70
2019-04-19T15:41:26.330Z,67.90
2019-04-19T15:43:54.821Z,67.30
2019-04-19T15:46:23.879Z,68.10
2019-04-19T15:48:55.623Z,66.70
2019-04-19T15:51:30.058Z,66.40
2019-04-19T15:53:53.540Z,65.50
2019-04-19T15:56:24.364Z,65.50
2019-04-19T15:58:52.993Z,65.70
2019-04-19T16:01:39.805Z,66.00
2019-04-19T16:04:08.383Z,66.50
2019-04-19T16:06:38.468Z,67.50
2019-04-19T16:09:25.195Z,65.90
2019-04-19T16:11:56.470Z,65.30
2019-04-19T16:14:25.872Z,65.80
2019-04-19T16:16:55.352Z,66.00
2019-04-19T16:19:59.699Z,65.30
2019-04-19T16:22:28.231Z,65.50
2019-04-19T16:24:56.997Z,65.00
2019-04-19T16:27:25.589Z,65.00
2019-04-19T16:30:03.490Z,66.60
2019-04-19T16:32:32.853Z,65.10
2019-04-19T16:35:01.760Z,65.10
2019-04-19T16:37:30.745Z,64.90
2019-04-19T16:40:00.102Z,64.20
2019-04-19T16:42:29.409Z,63.90
2019-04-19T16:44:57.920Z,64.30
2019-04-19T16:47:27.069Z,63.00
2019-04-19T16:49:56.420Z,64.40
2019-04-19T16:52:24.965Z,64.50
2019-04-19T16:54:55.174Z,63.40
2019-04-19T16:57:29.152Z,63.00
2019-04-19T16:59:53.720Z,65.60
2019-04-19T17:02:22.756Z,64.00
2019-04-19T17:04:52.626Z,64.70
2019-04-19T17:07:21.083Z,64.70
2019-04-19T17:09:50.161Z,63.70
2019-04-19T17:12:18.880Z,64.70
2019-04-19T17:14:48.985Z,64.60
2019-04-19T17:17:22.688Z,64.40
2019-04-19T17:19:53.019Z,65.40
2019-04-19T17:22:26.328Z,65.40
2019-04-19T17:24:53.224Z,65.50
2019-04-19T17:27:27.198Z,65.00
2019-04-19T17:29:52.345Z,65.60
2019-04-19T17:32:21.198Z,66.20
2019-04-19T17:34:50.010Z,66.20
2019-04-19T17:37:18.553Z,66.00
2019-04-19T17:39:46.980Z,66.70
2019-04-19T17:42:16.600Z,66.60
2019-04-19T17:44:45.263Z,67.00
2019-04-19T17:47:17.047Z,66.80
2019-04-19T17:49:46.482Z,67.10
2019-04-19T17:52:23.095Z,67.60
2019-04-19T17:55:04.927Z,67.70
2019-04-19T17:57:21.101Z,67.60
2019-04-19T17:59:50.307Z,67.40
2019-04-19T18:02:19.125Z,67.60
2019-04-19T18:04:48.206Z,67.80
2019-04-19T18:07:16.814Z,67.70
2019-04-19T18:09:48.622Z,68.50
2019-04-19T18:12:15.424Z,68.70
2019-04-19T18:14:43.838Z,69.30
2019-04-19T18:17:12.530Z,69.70
2019-04-19T18:19:43.775Z,69.60
2019-04-19T18:22:20.954Z,70.20
2019-04-19T18:24:47.726Z,70.40
2019-04-19T18:27:18.270Z,71.20
2019-04-19T18:29:44.121Z,71.50
2019-04-19T18:32:14.372Z,71.70
2019-04-19T18:34:47.170Z,72.10
2019-04-19T18:37:40.937Z,72.50
2019-04-19T18:40:11.046Z,72.50
2019-04-19T18:42:51.092Z,73.10
2019-04-19T18:45:16.952Z,73.70
2019-04-19T18:47:52.796Z,73.90
2019-04-19T18:50:22.415Z,73.50
2019-04-19T18:52:58.457Z,73.40
2019-04-19T18:55:29.618Z,73.30
2019-04-19T18:57:51.847Z,73.50
2019-04-19T19:00:21.928Z,74.10
2019-04-19T19:02:55.467Z,74.00
2019-04-19T19:05:21.513Z,73.70
2019-04-19T19:07:57.209Z,73.80
2019-04-19T19:10:25.903Z,73.40
2019-04-19T19:12:51.364Z,73.90
2019-04-19T19:15:24.225Z,72.80
2019-04-19T19:17:55.723Z,72.60
2019-04-19T19:20:26.006Z,71.90
2019-04-19T19:23:06.203Z,72.60
2019-04-19T19:25:35.192Z,70.90
2019-04-19T19:27:55.791Z,70.80
2019-04-19T19:30:24.860Z,70.40
2019-04-19T19:33:00.229Z,68.70
2019-04-19T19:35:26.665Z,69.40
2019-04-19T19:37:54.724Z,68.50
2019-04-19T19:40:32.997Z,69.10
2019-04-19T19:43:15.534Z,69.80
2019-04-19T19:45:38.663Z,70.60
2019-04-19T19:48:13.216Z,71.80
2019-04-19T19:50:58.937Z,73.20
2019-04-19T19:53:37.429Z,72.80
2019-04-19T19:56:05.415Z,72.90
2019-04-19T19:58:19.867Z,72.50
2019-04-19T20:01:22.407Z,72.70
2019-04-19T20:03:41.793Z,73.60
2019-04-19T20:06:13.691Z,74.30
2019-04-19T20:08:39.789Z,75.10
2019-04-19T20:11:11.284Z,74.10
2019-04-19T20:13:44.001Z,73.60
2019-04-19T20:16:14.329Z,75.40
2019-04-19T20:18:39.611Z,75.30
2019-04-19T20:21:10.724Z,75.60
2019-04-19T20:23:54.190Z,75.20
2019-04-19T20:26:25.421Z,76.80
2019-04-19T20:28:47.662Z,77.00
2019-04-19T20:31:25.084Z,76.50
2019-04-19T20:33:54.640Z,77.10
2019-04-19T20:36:18.950Z,77.90
2019-04-19T20:38:53.521Z,76.40
2019-04-19T20:41:18.569Z,77.30
2019-04-19T20:43:59.484Z,76.80
2019-04-19T20:46:21.878Z,76.40
2019-04-19T20:48:54.094Z,76.60
2019-04-19T20:51:35.326Z,76.20
2019-04-19T20:54:10.239Z,77.40
2019-04-19T20:56:48.079Z,76.90
2019-04-19T20:58:57.942Z,76.80
2019-04-19T21:01:25.208Z,77.90
2019-04-19T21:03:58.457Z,78.50
2019-04-19T21:06:30.650Z,77.60
2019-04-19T21:08:56.616Z,78.60
2019-04-19T21:11:28.285Z,79.40
2019-04-19T21:13:59.940Z,77.70
2019-04-19T21:16:27.289Z,78.70
2019-04-19T21:19:00.687Z,80.40
2019-04-19T21:21:27.044Z,82.40
2019-04-19T21:24:01.434Z,81.50
2019-04-19T21:26:31.253Z,80.20
2019-04-19T21:28:57.562Z,81.40
2019-04-19T21:31:34.124Z,81.50
2019-04-19T21:33:59.873Z,82.00
2019-04-19T21:36:34.808Z,82.50
2019-04-19T21:39:01.101Z,83.80
2019-04-19T21:41:31.709Z,85.10
2019-04-19T21:43:57.122Z,85.20
2019-04-19T21:46:29.143Z,87.90
2019-04-19T21:48:56.954Z,87.10
2019-04-19T21:51:29.814Z,87.50
2019-04-19T21:53:56.691Z,90.10
2019-04-19T21:56:25.648Z,90.20
2019-04-19T21:58:57.455Z,90.30
2019-04-19T22:01:25.890Z,91.70
2019-04-19T22:04:02.187Z,91.20
2019-04-19T22:06:28.592Z,90.90
2019-04-19T22:08:59.252Z,92.30
2019-04-19T22:11:26.627Z,93.00
2019-04-19T22:13:55.575Z,93.20
2019-04-19T22:16:32.249Z,92.50
2019-04-19T22:18:56.023Z,93.10
2019-04-19T22:21:30.241Z,92.90
2019-04-19T22:23:58.428Z,92.60
2019-04-19T22:26:31.180Z,94.20
2019-04-19T22:28:57.638Z,94.00
2019-04-19T22:31:31.016Z,95.00
2019-04-19T22:33:56.744Z,94.80
2019-04-19T22:36:25.742Z,94.80
2019-04-19T22:38:58.524Z,94.70
2019-04-19T22:41:26.804Z,94.90
2019-04-19T22:43:54.646Z,95.00
2019-04-19T22:46:23.618Z,95.50
2019-04-19T22:48:59.087Z,95.20
2019-04-19T22:51:22.608Z,95.50
2019-04-19T22:53:52.558Z,95.10
2019-04-19T22:56:30.900Z,95.50
2019-04-19T22:58:51.657Z,95.90
2019-04-19T23:01:41.196Z,95.30
2019-04-19T23:04:15.090Z,95.10
2019-04-19T23:06:39.068Z,94.90
2019-04-19T23:09:10.679Z,94.60
2019-04-19T23:11:37.622Z,94.60
2019-04-19T23:14:07.321Z,94.90
2019-04-19T23:16:43.590Z,95.40
2019-04-19T23:19:09.388Z,96.20
2019-04-19T23:21:37.212Z,96.60
2019-04-19T23:24:11.547Z,96.40
2019-04-19T23:26:54.172Z,96.30
2019-04-19T23:29:06.547Z,96.00
2019-04-19T23:31:42.115Z,97.10
2019-04-19T23:34:08.207Z,97.80
2019-04-19T23:36:37.542Z,97.90
2019-04-19T23:39:11.020Z,97.30
2019-04-19T23:41:37.217Z,97.50
2019-04-19T23:44:11.255Z,98.30
2019-04-19T23:46:37.394Z,98.80
2019-04-19T23:49:10.372Z,98.50
2019-04-19T23:51:36.954Z,99.00
2019-04-19T23:54:17.678Z,99.60
2019-04-19T23:56:58.551Z,99.40
2019-04-19T23:59:15.387Z,99.90
